Ardmore, South Dakota
Current Conditions -  °F | °C
As of 7:53 PM on Sunday 21 Dec 2014 (Local Time) from KCUT Reporting Station
Clear Clear  
Wind Chill: 26°   Ceiling: Unl
Heat Index: 35°   Visibility: 10mi
Dew Point: 24°   Wind: 14mph
Humidity: 64%   Direction: 310°NW
Pressure: 29.45"   Gusts: 26mph
Location:  43.1994°N, 103.759°W
Report Text: KCUT 220253Z AUTO 31012G23KT 10SM CLR 02/M04 A2945 RMK AO2 SNB00E14 SLP983 P0000 60000 T00171044 50006
Loading
Personal Weather Stations






























Interactive Weather Map New forecast layout! Learn more

10-Day Weather Forecast

Advertisements
Track Severe Weather on mobile